sensor_id;sensor_type;location;lat;lon;timestamp;temperature;humidity
7216;DHT22;3649;48.798;9.798;2023-09-19T00:00:49;21.70;99.90
7216;DHT22;3649;48.798;9.798;2023-09-19T00:03:16;21.70;99.90
7216;DHT22;3649;48.798;9.798;2023-09-19T00:05:44;21.80;99.90
7216;DHT22;3649;48.798;9.798;2023-09-19T00:08:12;21.80;99.90
7216;DHT22;3649;48.798;9.798;2023-09-19T00:10:43;21.80;99.90
7216;DHT22;3649;48.798;9.798;2023-09-19T00:13:11;21.70;99.90
7216;DHT22;3649;48.798;9.798;2023-09-19T00:15:46;21.70;99.90
7216;DHT22;3649;48.798;9.798;2023-09-19T00:18:20;21.70;99.90
7216;DHT22;3649;48.798;9.798;2023-09-19T00:20:49;21.70;99.90
7216;DHT22;3649;48.798;9.798;2023-09-19T00:23:18;21.80;99.90
7216;DHT22;3649;48.798;9.798;2023-09-19T00:25:46;21.70;99.90
7216;DHT22;3649;48.798;9.798;2023-09-19T00:28:14;21.80;99.90
7216;DHT22;3649;48.798;9.798;2023-09-19T00:30:43;21.70;99.90
7216;DHT22;3649;48.798;9.798;2023-09-19T00:33:11;21.70;99.90
7216;DHT22;3649;48.798;9.798;2023-09-19T00:35:54;21.60;99.90
7216;DHT22;3649;48.798;9.798;2023-09-19T00:38:22;21.60;99.90
7216;DHT22;3649;48.798;9.798;2023-09-19T00:40:54;21.70;99.90
7216;DHT22;3649;48.798;9.798;2023-09-19T00:43:26;21.70;99.90
7216;DHT22;3649;48.798;9.798;2023-09-19T00:45:55;21.70;99.90
7216;DHT22;3649;48.798;9.798;2023-09-19T00:48:23;21.70;99.90
7216;DHT22;3649;48.798;9.798;2023-09-19T00:50:52;21.70;99.90
7216;DHT22;3649;48.798;9.798;2023-09-19T00:53:22;21.60;99.90
7216;DHT22;3649;48.798;9.798;2023-09-19T00:55:51;21.60;99.90
7216;DHT22;3649;48.798;9.798;2023-09-19T00:58:19;21.60;99.90
7216;DHT22;3649;48.798;9.798;2023-09-19T01:00:48;21.60;99.90
7216;DHT22;3649;48.798;9.798;2023-09-19T01:03:15;21.60;99.90
7216;DHT22;3649;48.798;9.798;2023-09-19T01:05:42;21.60;99.90
7216;DHT22;3649;48.798;9.798;2023-09-19T01:08:10;21.50;99.90
7216;DHT22;3649;48.798;9.798;2023-09-19T01:16:46;21.50;99.90
7216;DHT22;3649;48.798;9.798;2023-09-19T01:22:29;21.60;99.90
7216;DHT22;3649;48.798;9.798;2023-09-19T01:25:39;21.60;99.90
7216;DHT22;3649;48.798;9.798;2023-09-19T01:30:57;21.50;99.90
7216;DHT22;3649;48.798;9.798;2023-09-19T01:33:27;21.50;99.90
7216;DHT22;3649;48.798;9.798;2023-09-19T01:35:54;21.40;99.90
7216;DHT22;3649;48.798;9.798;2023-09-19T01:38:24;21.40;99.90
7216;DHT22;3649;48.798;9.798;2023-09-19T01:41:01;21.40;99.90
7216;DHT22;3649;48.798;9.798;2023-09-19T01:43:37;21.50;99.90
7216;DHT22;3649;48.798;9.798;2023-09-19T01:46:18;21.50;99.90
7216;DHT22;3649;48.798;9.798;2023-09-19T01:49:24;21.40;99.90
7216;DHT22;3649;48.798;9.798;2023-09-19T01:52:09;21.40;99.90
7216;DHT22;3649;48.798;9.798;2023-09-19T01:55:03;21.40;99.90
7216;DHT22;3649;48.798;9.798;2023-09-19T01:58:34;21.40;99.90
7216;DHT22;3649;48.798;9.798;2023-09-19T02:00:23;21.40;99.90
7216;DHT22;3649;48.798;9.798;2023-09-19T02:02:51;21.40;99.90
7216;DHT22;3649;48.798;9.798;2023-09-19T02:05:25;21.30;99.90
7216;DHT22;3649;48.798;9.798;2023-09-19T02:07:52;21.40;99.90
7216;DHT22;3649;48.798;9.798;2023-09-19T02:10:20;21.40;99.90
7216;DHT22;3649;48.798;9.798;2023-09-19T02:12:47;21.40;99.90
7216;DHT22;3649;48.798;9.798;2023-09-19T02:15:14;21.40;99.90
7216;DHT22;3649;48.798;9.798;2023-09-19T02:17:45;21.50;99.90
7216;DHT22;3649;48.798;9.798;2023-09-19T02:20:13;21.40;99.90
7216;DHT22;3649;48.798;9.798;2023-09-19T02:22:42;21.50;99.90
7216;DHT22;3649;48.798;9.798;2023-09-19T02:25:09;21.40;99.90
7216;DHT22;3649;48.798;9.798;2023-09-19T02:27:36;21.40;99.90
7216;DHT22;3649;48.798;9.798;2023-09-19T02:30:05;21.40;99.90
7216;DHT22;3649;48.798;9.798;2023-09-19T02:32:32;21.50;99.90
7216;DHT22;3649;48.798;9.798;2023-09-19T02:35:06;21.50;99.90
7216;DHT22;3649;48.798;9.798;2023-09-19T02:37:33;21.50;99.90
7216;DHT22;3649;48.798;9.798;2023-09-19T02:40:01;21.40;99.90
7216;DHT22;3649;48.798;9.798;2023-09-19T02:42:29;21.40;99.90
7216;DHT22;3649;48.798;9.798;2023-09-19T02:44:57;21.40;99.90
7216;DHT22;3649;48.798;9.798;2023-09-19T02:47:24;21.40;99.90
7216;DHT22;3649;48.798;9.798;2023-09-19T02:49:51;21.40;99.90
7216;DHT22;3649;48.798;9.798;2023-09-19T02:52:18;21.40;99.90
7216;DHT22;3649;48.798;9.798;2023-09-19T02:54:45;21.40;99.90
7216;DHT22;3649;48.798;9.798;2023-09-19T02:57:12;21.40;99.90
7216;DHT22;3649;48.798;9.798;2023-09-19T02:59:40;21.40;99.90
7216;DHT22;3649;48.798;9.798;2023-09-19T03:02:08;21.40;99.90
7216;DHT22;3649;48.798;9.798;2023-09-19T03:04:36;21.30;99.90
7216;DHT22;3649;48.798;9.798;2023-09-19T03:07:04;21.30;99.90
7216;DHT22;3649;48.798;9.798;2023-09-19T03:09:32;21.30;99.90
7216;DHT22;3649;48.798;9.798;2023-09-19T03:11:59;21.40;99.90
7216;DHT22;3649;48.798;9.798;2023-09-19T03:14:26;21.30;99.90
7216;DHT22;3649;48.798;9.798;2023-09-19T03:16:57;21.20;99.90
7216;DHT22;3649;48.798;9.798;2023-09-19T03:19:24;22.80;99.90
7216;DHT22;3649;48.798;9.798;2023-09-19T03:21:53;21.30;99.90
7216;DHT22;3649;48.798;9.798;2023-09-19T03:24:20;21.40;99.90
7216;DHT22;3649;48.798;9.798;2023-09-19T03:26:47;21.40;99.90
7216;DHT22;3649;48.798;9.798;2023-09-19T03:29:14;21.40;99.90
7216;DHT22;3649;48.798;9.798;2023-09-19T03:31:41;21.40;99.90
7216;DHT22;3649;48.798;9.798;2023-09-19T03:34:08;21.30;99.90
7216;DHT22;3649;48.798;9.798;2023-09-19T03:36:36;21.20;99.90
7216;DHT22;3649;48.798;9.798;2023-09-19T03:39:03;21.20;99.90
7216;DHT22;3649;48.798;9.798;2023-09-19T03:41:32;21.20;99.90
7216;DHT22;3649;48.798;9.798;2023-09-19T03:43:59;21.20;99.90
7216;DHT22;3649;48.798;9.798;2023-09-19T03:46:27;21.10;99.90
7216;DHT22;3649;48.798;9.798;2023-09-19T03:48:54;21.20;99.90
7216;DHT22;3649;48.798;9.798;2023-09-19T03:51:21;21.20;99.90
7216;DHT22;3649;48.798;9.798;2023-09-19T03:53:48;21.20;99.90
7216;DHT22;3649;48.798;9.798;2023-09-19T03:56:18;21.20;99.90
7216;DHT22;3649;48.798;9.798;2023-09-19T03:58:45;21.20;99.90
7216;DHT22;3649;48.798;9.798;2023-09-19T04:01:12;21.20;99.90
7216;DHT22;3649;48.798;9.798;2023-09-19T04:03:40;21.30;99.90
7216;DHT22;3649;48.798;9.798;2023-09-19T04:06:15;21.30;99.90
7216;DHT22;3649;48.798;9.798;2023-09-19T04:08:43;21.30;99.90
7216;DHT22;3649;48.798;9.798;2023-09-19T04:11:10;21.30;99.90
7216;DHT22;3649;48.798;9.798;2023-09-19T04:13:37;21.20;99.90
7216;DHT22;3649;48.798;9.798;2023-09-19T04:16:05;21.30;99.90
7216;DHT22;3649;48.798;9.798;2023-09-19T04:18:33;21.30;99.90
7216;DHT22;3649;48.798;9.798;2023-09-19T04:21:04;21.10;99.90
7216;DHT22;3649;48.798;9.798;2023-09-19T04:23:32;21.10;99.90
7216;DHT22;3649;48.798;9.798;2023-09-19T04:25:59;21.20;99.90
7216;DHT22;3649;48.798;9.798;2023-09-19T04:28:26;21.10;99.90
7216;DHT22;3649;48.798;9.798;2023-09-19T04:30:54;21.20;99.90
7216;DHT22;3649;48.798;9.798;2023-09-19T04:33:22;21.10;99.90
7216;DHT22;3649;48.798;9.798;2023-09-19T04:35:50;21.20;99.90
7216;DHT22;3649;48.798;9.798;2023-09-19T04:38:20;21.20;99.90
7216;DHT22;3649;48.798;9.798;2023-09-19T04:40:47;21.20;99.90
7216;DHT22;3649;48.798;9.798;2023-09-19T04:43:14;21.10;99.90
7216;DHT22;3649;48.798;9.798;2023-09-19T04:45:42;21.20;99.90
7216;DHT22;3649;48.798;9.798;2023-09-19T04:48:09;21.10;99.90
7216;DHT22;3649;48.798;9.798;2023-09-19T04:50:37;21.30;99.90
7216;DHT22;3649;48.798;9.798;2023-09-19T04:53:04;21.20;99.90
7216;DHT22;3649;48.798;9.798;2023-09-19T04:55:31;21.20;99.90
7216;DHT22;3649;48.798;9.798;2023-09-19T04:57:59;21.30;99.90
7216;DHT22;3649;48.798;9.798;2023-09-19T05:00:26;21.20;99.90
7216;DHT22;3649;48.798;9.798;2023-09-19T05:02:57;21.20;99.90
7216;DHT22;3649;48.798;9.798;2023-09-19T05:05:24;21.20;99.90
7216;DHT22;3649;48.798;9.798;2023-09-19T05:07:53;21.20;99.90
7216;DHT22;3649;48.798;9.798;2023-09-19T05:10:25;21.30;99.90
7216;DHT22;3649;48.798;9.798;2023-09-19T05:12:55;21.30;99.90
7216;DHT22;3649;48.798;9.798;2023-09-19T05:15:22;21.30;99.90
7216;DHT22;3649;48.798;9.798;2023-09-19T05:17:50;21.30;99.90
7216;DHT22;3649;48.798;9.798;2023-09-19T05:20:23;21.30;99.90
7216;DHT22;3649;48.798;9.798;2023-09-19T05:23:01;21.30;99.90
7216;DHT22;3649;48.798;9.798;2023-09-19T05:25:31;21.20;99.90
7216;DHT22;3649;48.798;9.798;2023-09-19T05:27:59;21.30;99.90
7216;DHT22;3649;48.798;9.798;2023-09-19T05:30:27;21.30;99.90
7216;DHT22;3649;48.798;9.798;2023-09-19T05:32:54;21.30;99.90
7216;DHT22;3649;48.798;9.798;2023-09-19T05:35:22;21.30;99.90
7216;DHT22;3649;48.798;9.798;2023-09-19T05:37:53;21.30;99.90
7216;DHT22;3649;48.798;9.798;2023-09-19T05:40:21;21.30;99.90
7216;DHT22;3649;48.798;9.798;2023-09-19T05:42:48;21.30;99.90
7216;DHT22;3649;48.798;9.798;2023-09-19T05:45:17;21.30;99.90
7216;DHT22;3649;48.798;9.798;2023-09-19T05:47:49;21.30;99.90
7216;DHT22;3649;48.798;9.798;2023-09-19T05:50:20;21.30;99.90
7216;DHT22;3649;48.798;9.798;2023-09-19T05:52:54;21.30;99.90
7216;DHT22;3649;48.798;9.798;2023-09-19T05:55:25;21.30;99.90
7216;DHT22;3649;48.798;9.798;2023-09-19T05:57:53;21.20;99.90
7216;DHT22;3649;48.798;9.798;2023-09-19T06:00:21;21.30;99.90
7216;DHT22;3649;48.798;9.798;2023-09-19T06:02:56;21.30;99.90
7216;DHT22;3649;48.798;9.798;2023-09-19T06:05:25;21.30;99.90
7216;DHT22;3649;48.798;9.798;2023-09-19T06:07:54;21.30;99.90
7216;DHT22;3649;48.798;9.798;2023-09-19T06:10:21;21.20;99.90
7216;DHT22;3649;48.798;9.798;2023-09-19T06:12:49;21.20;99.90
7216;DHT22;3649;48.798;9.798;2023-09-19T06:15:16;21.10;99.90
7216;DHT22;3649;48.798;9.798;2023-09-19T06:17:50;21.00;99.90
7216;DHT22;3649;48.798;9.798;2023-09-19T06:20:17;20.90;99.90
7216;DHT22;3649;48.798;9.798;2023-09-19T06:22:45;20.90;99.90
7216;DHT22;3649;48.798;9.798;2023-09-19T06:25:16;20.80;99.90
7216;DHT22;3649;48.798;9.798;2023-09-19T06:27:47;20.80;99.90
7216;DHT22;3649;48.798;9.798;2023-09-19T06:30:15;20.80;99.90
7216;DHT22;3649;48.798;9.798;2023-09-19T06:32:43;20.80;99.90
7216;DHT22;3649;48.798;9.798;2023-09-19T06:35:12;20.80;99.90
7216;DHT22;3649;48.798;9.798;2023-09-19T06:37:41;20.90;99.90
7216;DHT22;3649;48.798;9.798;2023-09-19T06:40:09;20.90;99.90
7216;DHT22;3649;48.798;9.798;2023-09-19T06:42:45;20.90;99.90
7216;DHT22;3649;48.798;9.798;2023-09-19T06:45:13;20.90;99.90
7216;DHT22;3649;48.798;9.798;2023-09-19T06:47:45;20.60;99.90
7216;DHT22;3649;48.798;9.798;2023-09-19T06:50:17;20.30;99.90
7216;DHT22;3649;48.798;9.798;2023-09-19T06:52:47;20.10;99.90
7216;DHT22;3649;48.798;9.798;2023-09-19T06:55:17;19.90;99.90
7216;DHT22;3649;48.798;9.798;2023-09-19T06:57:47;19.80;99.90
7216;DHT22;3649;48.798;9.798;2023-09-19T07:00:15;19.70;99.90
7216;DHT22;3649;48.798;9.798;2023-09-19T07:02:42;19.70;99.90
7216;DHT22;3649;48.798;9.798;2023-09-19T07:05:09;19.60;99.90
7216;DHT22;3649;48.798;9.798;2023-09-19T07:07:37;19.60;99.90
7216;DHT22;3649;48.798;9.798;2023-09-19T07:10:04;19.50;99.90
7216;DHT22;3649;48.798;9.798;2023-09-19T07:12:37;19.40;99.90
7216;DHT22;3649;48.798;9.798;2023-09-19T07:15:05;19.30;99.90
7216;DHT22;3649;48.798;9.798;2023-09-19T07:17:32;19.30;99.90
7216;DHT22;3649;48.798;9.798;2023-09-19T07:20:00;19.30;99.90
7216;DHT22;3649;48.798;9.798;2023-09-19T07:22:27;19.30;99.90
7216;DHT22;3649;48.798;9.798;2023-09-19T07:24:54;19.30;99.90
7216;DHT22;3649;48.798;9.798;2023-09-19T07:27:21;19.20;99.90
7216;DHT22;3649;48.798;9.798;2023-09-19T07:29:48;19.20;99.90
7216;DHT22;3649;48.798;9.798;2023-09-19T07:32:19;19.30;99.90
7216;DHT22;3649;48.798;9.798;2023-09-19T07:34:46;19.40;99.90
7216;DHT22;3649;48.798;9.798;2023-09-19T07:37:14;19.40;99.90
7216;DHT22;3649;48.798;9.798;2023-09-19T07:39:42;19.40;99.90
7216;DHT22;3649;48.798;9.798;2023-09-19T07:42:10;19.50;99.90
7216;DHT22;3649;48.798;9.798;2023-09-19T07:44:38;19.50;99.90
7216;DHT22;3649;48.798;9.798;2023-09-19T07:47:05;19.60;99.90
7216;DHT22;3649;48.798;9.798;2023-09-19T07:49:32;19.70;99.90
7216;DHT22;3649;48.798;9.798;2023-09-19T07:51:58;19.70;99.90
7216;DHT22;3649;48.798;9.798;2023-09-19T07:54:25;19.80;99.90
7216;DHT22;3649;48.798;9.798;2023-09-19T07:56:57;19.90;99.90
7216;DHT22;3649;48.798;9.798;2023-09-19T07:59:24;19.90;99.90
7216;DHT22;3649;48.798;9.798;2023-09-19T08:01:51;20.00;99.90
7216;DHT22;3649;48.798;9.798;2023-09-19T08:04:19;20.00;99.90
7216;DHT22;3649;48.798;9.798;2023-09-19T08:06:46;20.10;99.90
7216;DHT22;3649;48.798;9.798;2023-09-19T08:09:13;20.30;99.90
7216;DHT22;3649;48.798;9.798;2023-09-19T08:11:51;20.30;99.90
7216;DHT22;3649;48.798;9.798;2023-09-19T08:14:18;20.40;99.90
7216;DHT22;3649;48.798;9.798;2023-09-19T08:16:45;20.40;99.90
7216;DHT22;3649;48.798;9.798;2023-09-19T08:19:12;20.50;99.90
7216;DHT22;3649;48.798;9.798;2023-09-19T08:21:39;20.50;99.90
7216;DHT22;3649;48.798;9.798;2023-09-19T08:24:06;20.60;99.90
7216;DHT22;3649;48.798;9.798;2023-09-19T08:26:34;20.70;99.90
7216;DHT22;3649;48.798;9.798;2023-09-19T08:29:01;20.80;99.90
7216;DHT22;3649;48.798;9.798;2023-09-19T08:31:32;20.80;99.90
7216;DHT22;3649;48.798;9.798;2023-09-19T08:34:00;20.90;99.90
7216;DHT22;3649;48.798;9.798;2023-09-19T08:36:27;21.00;99.90
7216;DHT22;3649;48.798;9.798;2023-09-19T08:38:54;21.10;99.90
7216;DHT22;3649;48.798;9.798;2023-09-19T08:41:21;21.20;99.90
7216;DHT22;3649;48.798;9.798;2023-09-19T08:43:48;21.30;99.90
7216;DHT22;3649;48.798;9.798;2023-09-19T08:46:16;21.40;99.90
7216;DHT22;3649;48.798;9.798;2023-09-19T08:48:57;21.50;99.90
7216;DHT22;3649;48.798;9.798;2023-09-19T08:51:33;21.60;99.90
7216;DHT22;3649;48.798;9.798;2023-09-19T08:54:06;21.70;99.90
7216;DHT22;3649;48.798;9.798;2023-09-19T08:56:34;21.70;99.90
7216;DHT22;3649;48.798;9.798;2023-09-19T08:59:06;21.70;99.90
7216;DHT22;3649;48.798;9.798;2023-09-19T09:01:38;21.70;99.90
7216;DHT22;3649;48.798;9.798;2023-09-19T09:04:08;21.70;99.90
7216;DHT22;3649;48.798;9.798;2023-09-19T09:06:35;21.80;99.90
7216;DHT22;3649;48.798;9.798;2023-09-19T09:09:03;21.80;99.90
7216;DHT22;3649;48.798;9.798;2023-09-19T09:11:33;21.90;99.90
7216;DHT22;3649;48.798;9.798;2023-09-19T09:14:00;21.80;99.90
7216;DHT22;3649;48.798;9.798;2023-09-19T09:16:30;21.70;99.90
7216;DHT22;3649;48.798;9.798;2023-09-19T09:18:57;21.70;99.90
7216;DHT22;3649;48.798;9.798;2023-09-19T09:21:25;21.60;99.90
7216;DHT22;3649;48.798;9.798;2023-09-19T09:23:52;21.70;99.90
7216;DHT22;3649;48.798;9.798;2023-09-19T09:29:06;21.70;99.90
7216;DHT22;3649;48.798;9.798;2023-09-19T09:31:33;21.70;99.90
7216;DHT22;3649;48.798;9.798;2023-09-19T09:34:00;21.70;99.90
7216;DHT22;3649;48.798;9.798;2023-09-19T09:36:35;21.70;99.90
7216;DHT22;3649;48.798;9.798;2023-09-19T09:39:04;21.60;99.90
7216;DHT22;3649;48.798;9.798;2023-09-19T09:41:43;21.60;99.90
7216;DHT22;3649;48.798;9.798;2023-09-19T09:44:15;21.60;99.90
7216;DHT22;3649;48.798;9.798;2023-09-19T09:46:43;21.70;99.90
7216;DHT22;3649;48.798;9.798;2023-09-19T09:49:23;21.70;99.90
7216;DHT22;3649;48.798;9.798;2023-09-19T09:52:05;21.70;99.90
7216;DHT22;3649;48.798;9.798;2023-09-19T09:54:37;21.70;99.90
7216;DHT22;3649;48.798;9.798;2023-09-19T09:57:10;21.80;99.90
7216;DHT22;3649;48.798;9.798;2023-09-19T09:59:49;21.90;99.90
7216;DHT22;3649;48.798;9.798;2023-09-19T10:02:18;21.90;99.90
7216;DHT22;3649;48.798;9.798;2023-09-19T10:04:52;21.80;99.90
7216;DHT22;3649;48.798;9.798;2023-09-19T10:07:30;21.80;99.90
7216;DHT22;3649;48.798;9.798;2023-09-19T10:10:39;21.90;99.90
7216;DHT22;3649;48.798;9.798;2023-09-19T10:13:12;21.90;99.90
7216;DHT22;3649;48.798;9.798;2023-09-19T10:15:42;22.00;99.90
7216;DHT22;3649;48.798;9.798;2023-09-19T10:18:25;22.10;99.90
7216;DHT22;3649;48.798;9.798;2023-09-19T10:20:52;22.10;99.90
7216;DHT22;3649;48.798;9.798;2023-09-19T10:23:21;22.20;99.90
7216;DHT22;3649;48.798;9.798;2023-09-19T10:25:53;22.20;99.90
7216;DHT22;3649;48.798;9.798;2023-09-19T10:28:21;22.20;99.90
7216;DHT22;3649;48.798;9.798;2023-09-19T10:30:52;22.30;99.90
7216;DHT22;3649;48.798;9.798;2023-09-19T10:33:24;22.30;99.90
7216;DHT22;3649;48.798;9.798;2023-09-19T10:35:59;22.20;99.90
7216;DHT22;3649;48.798;9.798;2023-09-19T10:38:27;22.20;99.90
7216;DHT22;3649;48.798;9.798;2023-09-19T10:40:57;22.20;99.90
7216;DHT22;3649;48.798;9.798;2023-09-19T10:43:32;22.20;99.90
7216;DHT22;3649;48.798;9.798;2023-09-19T10:46:06;22.20;99.90
7216;DHT22;3649;48.798;9.798;2023-09-19T10:48:34;22.20;99.90
7216;DHT22;3649;48.798;9.798;2023-09-19T10:51:18;22.20;99.90
7216;DHT22;3649;48.798;9.798;2023-09-19T10:54:06;22.30;99.90
7216;DHT22;3649;48.798;9.798;2023-09-19T10:56:41;22.40;99.90
7216;DHT22;3649;48.798;9.798;2023-09-19T10:59:13;22.50;99.90
7216;DHT22;3649;48.798;9.798;2023-09-19T11:01:55;22.50;99.90
7216;DHT22;3649;48.798;9.798;2023-09-19T11:04:33;22.50;99.90
7216;DHT22;3649;48.798;9.798;2023-09-19T11:07:09;22.60;99.90
7216;DHT22;3649;48.798;9.798;2023-09-19T11:15:03;22.70;99.90
7216;DHT22;3649;48.798;9.798;2023-09-19T11:17:36;22.70;99.90
7216;DHT22;3649;48.798;9.798;2023-09-19T11:30:49;22.90;99.90
7216;DHT22;3649;48.798;9.798;2023-09-19T11:36:03;22.90;99.90
7216;DHT22;3649;48.798;9.798;2023-09-19T11:43:48;23.10;99.90
7216;DHT22;3649;48.798;9.798;2023-09-19T11:46:15;23.10;99.90
7216;DHT22;3649;48.798;9.798;2023-09-19T11:48:43;23.10;99.90
7216;DHT22;3649;48.798;9.798;2023-09-19T11:51:13;23.20;99.90
7216;DHT22;3649;48.798;9.798;2023-09-19T11:53:43;23.30;99.90
7216;DHT22;3649;48.798;9.798;2023-09-19T11:56:11;23.30;99.90
7216;DHT22;3649;48.798;9.798;2023-09-19T11:58:38;23.30;99.90
7216;DHT22;3649;48.798;9.798;2023-09-19T12:01:12;23.30;99.90
7216;DHT22;3649;48.798;9.798;2023-09-19T12:03:46;23.30;99.90
7216;DHT22;3649;48.798;9.798;2023-09-19T12:06:15;23.40;99.90
7216;DHT22;3649;48.798;9.798;2023-09-19T12:08:43;23.60;99.90
7216;DHT22;3649;48.798;9.798;2023-09-19T12:11:14;23.60;99.90
7216;DHT22;3649;48.798;9.798;2023-09-19T12:13:47;23.60;99.90
7216;DHT22;3649;48.798;9.798;2023-09-19T12:16:16;23.60;99.90
7216;DHT22;3649;48.798;9.798;2023-09-19T12:18:44;23.50;99.90
7216;DHT22;3649;48.798;9.798;2023-09-19T12:21:28;23.50;99.90
7216;DHT22;3649;48.798;9.798;2023-09-19T12:24:04;23.60;99.90
7216;DHT22;3649;48.798;9.798;2023-09-19T12:26:42;23.60;99.90
7216;DHT22;3649;48.798;9.798;2023-09-19T12:29:14;23.60;99.90
7216;DHT22;3649;48.798;9.798;2023-09-19T12:34:20;23.60;99.90
7216;DHT22;3649;48.798;9.798;2023-09-19T12:36:47;23.60;99.90
7216;DHT22;3649;48.798;9.798;2023-09-19T12:39:24;23.60;99.90
7216;DHT22;3649;48.798;9.798;2023-09-19T12:41:53;23.70;99.90
7216;DHT22;3649;48.798;9.798;2023-09-19T12:44:20;23.70;99.90
7216;DHT22;3649;48.798;9.798;2023-09-19T12:46:47;23.80;99.90
7216;DHT22;3649;48.798;9.798;2023-09-19T12:49:16;23.80;99.90
7216;DHT22;3649;48.798;9.798;2023-09-19T12:51:46;23.90;99.90
7216;DHT22;3649;48.798;9.798;2023-09-19T12:54:14;23.90;99.90
7216;DHT22;3649;48.798;9.798;2023-09-19T12:56:44;24.00;99.90
7216;DHT22;3649;48.798;9.798;2023-09-19T12:59:29;24.00;99.90
7216;DHT22;3649;48.798;9.798;2023-09-19T13:02:04;24.10;99.90
7216;DHT22;3649;48.798;9.798;2023-09-19T13:04:32;24.10;99.90
7216;DHT22;3649;48.798;9.798;2023-09-19T13:07:01;24.10;99.90
7216;DHT22;3649;48.798;9.798;2023-09-19T13:09:28;24.10;99.90
7216;DHT22;3649;48.798;9.798;2023-09-19T13:12:02;24.20;99.90
7216;DHT22;3649;48.798;9.798;2023-09-19T13:14:33;24.20;99.90
7216;DHT22;3649;48.798;9.798;2023-09-19T13:17:07;24.20;99.90
7216;DHT22;3649;48.798;9.798;2023-09-19T13:19:48;24.30;99.90
7216;DHT22;3649;48.798;9.798;2023-09-19T13:22:39;24.30;99.90
7216;DHT22;3649;48.798;9.798;2023-09-19T13:25:09;24.30;99.90
7216;DHT22;3649;48.798;9.798;2023-09-19T13:27:48;24.30;99.90
7216;DHT22;3649;48.798;9.798;2023-09-19T13:30:19;24.40;99.90
7216;DHT22;3649;48.798;9.798;2023-09-19T13:32:46;24.40;99.90
7216;DHT22;3649;48.798;9.798;2023-09-19T13:35:14;24.40;99.90
7216;DHT22;3649;48.798;9.798;2023-09-19T13:37:43;24.40;99.90
7216;DHT22;3649;48.798;9.798;2023-09-19T13:40:12;24.40;99.90
7216;DHT22;3649;48.798;9.798;2023-09-19T13:42:40;24.30;99.90
7216;DHT22;3649;48.798;9.798;2023-09-19T13:45:08;24.40;99.90
7216;DHT22;3649;48.798;9.798;2023-09-19T13:47:39;24.40;99.90
7216;DHT22;3649;48.798;9.798;2023-09-19T13:50:07;24.40;99.90
7216;DHT22;3649;48.798;9.798;2023-09-19T13:52:34;24.50;99.90
7216;DHT22;3649;48.798;9.798;2023-09-19T13:55:02;24.50;99.90
7216;DHT22;3649;48.798;9.798;2023-09-19T13:57:29;24.50;99.90
7216;DHT22;3649;48.798;9.798;2023-09-19T13:59:56;24.50;99.90
7216;DHT22;3649;48.798;9.798;2023-09-19T14:02:23;24.40;99.90
7216;DHT22;3649;48.798;9.798;2023-09-19T14:04:52;24.40;99.90
7216;DHT22;3649;48.798;9.798;2023-09-19T14:07:19;24.40;99.90
7216;DHT22;3649;48.798;9.798;2023-09-19T14:09:47;24.40;99.90
7216;DHT22;3649;48.798;9.798;2023-09-19T14:12:14;24.30;99.90
7216;DHT22;3649;48.798;9.798;2023-09-19T14:14:41;24.40;99.90
7216;DHT22;3649;48.798;9.798;2023-09-19T14:17:09;24.40;99.90
7216;DHT22;3649;48.798;9.798;2023-09-19T14:19:36;24.50;99.90
7216;DHT22;3649;48.798;9.798;2023-09-19T14:22:04;24.50;99.90
7216;DHT22;3649;48.798;9.798;2023-09-19T14:24:35;24.50;99.90
7216;DHT22;3649;48.798;9.798;2023-09-19T14:27:03;24.50;99.90
7216;DHT22;3649;48.798;9.798;2023-09-19T14:29:33;24.40;99.90
7216;DHT22;3649;48.798;9.798;2023-09-19T14:32:00;25.10;99.90
7216;DHT22;3649;48.798;9.798;2023-09-19T14:34:27;24.40;99.90
7216;DHT22;3649;48.798;9.798;2023-09-19T14:36:54;24.40;99.90
7216;DHT22;3649;48.798;9.798;2023-09-19T14:39:21;24.40;99.90
7216;DHT22;3649;48.798;9.798;2023-09-19T14:41:48;24.50;99.90
7216;DHT22;3649;48.798;9.798;2023-09-19T14:44:15;24.50;99.90
7216;DHT22;3649;48.798;9.798;2023-09-19T14:46:43;24.50;99.90
7216;DHT22;3649;48.798;9.798;2023-09-19T14:49:13;24.40;99.90
7216;DHT22;3649;48.798;9.798;2023-09-19T14:51:43;24.50;99.90
7216;DHT22;3649;48.798;9.798;2023-09-19T14:54:14;24.40;99.90
7216;DHT22;3649;48.798;9.798;2023-09-19T14:56:44;24.40;99.90
7216;DHT22;3649;48.798;9.798;2023-09-19T14:59:12;24.40;99.90
7216;DHT22;3649;48.798;9.798;2023-09-19T15:01:40;24.30;99.90
7216;DHT22;3649;48.798;9.798;2023-09-19T15:04:08;24.30;99.90
7216;DHT22;3649;48.798;9.798;2023-09-19T15:06:35;24.30;99.90
7216;DHT22;3649;48.798;9.798;2023-09-19T15:09:02;24.30;99.90
7216;DHT22;3649;48.798;9.798;2023-09-19T15:11:34;24.30;99.90
7216;DHT22;3649;48.798;9.798;2023-09-19T15:14:01;25.60;99.90
7216;DHT22;3649;48.798;9.798;2023-09-19T15:16:30;24.30;99.90
7216;DHT22;3649;48.798;9.798;2023-09-19T15:18:59;24.30;99.90
7216;DHT22;3649;48.798;9.798;2023-09-19T15:21:26;24.20;99.90
7216;DHT22;3649;48.798;9.798;2023-09-19T15:23:53;24.20;99.90
7216;DHT22;3649;48.798;9.798;2023-09-19T15:26:20;24.20;99.90
7216;DHT22;3649;48.798;9.798;2023-09-19T15:28:48;24.20;99.90
7216;DHT22;3649;48.798;9.798;2023-09-19T15:31:16;24.20;99.90
7216;DHT22;3649;48.798;9.798;2023-09-19T15:33:43;24.20;99.90
7216;DHT22;3649;48.798;9.798;2023-09-19T15:36:12;24.20;99.90
7216;DHT22;3649;48.798;9.798;2023-09-19T15:38:58;24.20;99.90
7216;DHT22;3649;48.798;9.798;2023-09-19T15:41:34;24.30;99.90
7216;DHT22;3649;48.798;9.798;2023-09-19T15:44:02;24.20;99.90
7216;DHT22;3649;48.798;9.798;2023-09-19T15:46:32;24.10;99.90
7216;DHT22;3649;48.798;9.798;2023-09-19T15:49:03;24.20;99.90
7216;DHT22;3649;48.798;9.798;2023-09-19T15:51:30;24.20;99.90
7216;DHT22;3649;48.798;9.798;2023-09-19T15:53:58;24.20;99.90
7216;DHT22;3649;48.798;9.798;2023-09-19T15:56:27;24.10;99.90
7216;DHT22;3649;48.798;9.798;2023-09-19T15:58:55;24.10;99.90
7216;DHT22;3649;48.798;9.798;2023-09-19T16:01:22;24.10;99.90
7216;DHT22;3649;48.798;9.798;2023-09-19T16:03:51;24.00;99.90
7216;DHT22;3649;48.798;9.798;2023-09-19T16:06:29;24.00;99.90
7216;DHT22;3649;48.798;9.798;2023-09-19T16:08:58;24.00;99.90
7216;DHT22;3649;48.798;9.798;2023-09-19T16:11:27;24.10;99.90
7216;DHT22;3649;48.798;9.798;2023-09-19T16:13:55;24.00;99.90
7216;DHT22;3649;48.798;9.798;2023-09-19T16:16:23;23.90;99.90
7216;DHT22;3649;48.798;9.798;2023-09-19T16:18:51;23.90;99.90
7216;DHT22;3649;48.798;9.798;2023-09-19T16:21:19;23.90;99.90
7216;DHT22;3649;48.798;9.798;2023-09-19T16:23:47;23.90;99.90
7216;DHT22;3649;48.798;9.798;2023-09-19T16:26:14;23.80;99.90
7216;DHT22;3649;48.798;9.798;2023-09-19T16:28:43;23.80;99.90
7216;DHT22;3649;48.798;9.798;2023-09-19T16:31:11;23.80;99.90
7216;DHT22;3649;48.798;9.798;2023-09-19T16:33:40;23.80;99.90
7216;DHT22;3649;48.798;9.798;2023-09-19T16:36:11;22.60;99.90
7216;DHT22;3649;48.798;9.798;2023-09-19T16:38:38;23.70;99.90
7216;DHT22;3649;48.798;9.798;2023-09-19T16:41:07;23.70;99.90
7216;DHT22;3649;48.798;9.798;2023-09-19T16:43:41;23.60;99.90
7216;DHT22;3649;48.798;9.798;2023-09-19T16:46:09;23.60;99.90
7216;DHT22;3649;48.798;9.798;2023-09-19T16:48:40;23.60;99.90
7216;DHT22;3649;48.798;9.798;2023-09-19T16:51:27;23.60;99.90
7216;DHT22;3649;48.798;9.798;2023-09-19T16:53:55;23.60;99.90
7216;DHT22;3649;48.798;9.798;2023-09-19T16:56:22;23.60;99.90
7216;DHT22;3649;48.798;9.798;2023-09-19T16:58:49;23.60;99.90
7216;DHT22;3649;48.798;9.798;2023-09-19T17:01:19;23.50;99.90